Portada
METAR-TAF:

METAR-TAF

Aeropuertos :

Dusambé, Tayikistán

Aeropuerto Internacional de Dusambé

latitud: 38-33N, longitud: 068-47E, altitud: 803 m

Observación

El informe se hizo hace 32 minutos, a las 09:30 UTC
Viento 4 kt con dirección variable
Temperatura 22°C
Humedad 41%
Presión 1021 hPa
Visibilidad 10 km o más
Escasas nubes a una altura de 6400 ft

METAR: UTDD 230930Z VRB02MPS 9999 FEW064 22/08 Q1021 R09/D NOSIG RMK QFE697/0929

Hora: 15:02 (10:02 UTC)

Pronóstico

El informe se hizo hace 1 hora y 2 minutos, a las 09:00 UTC
Pronóstico válido del 23 a las 10 UTC al 23 a las 22 UTC
Viento 4 kt con dirección variable
Visibilidad: 6000 m
Escasas nubes a una altura de 6600 ft
Nubes dispersas a una altura de 13000 ft

TAF: UTDD 230900Z 2310/2322 VRB02MPS 6000 FEW066 SCT130

Observaciones y pronósticos meteorológicos de más de 4000 aeropuertos (mensajes METAR y TAF).

Los puntos amarillos y rojos representan las estaciones disponibles.

Ponga el ratón en el punto deseado para ver el nombre de la estación.

Haga clic para ver las observaciones y los pronósticos meteorológicos.

Para cambiar el mapa : haga clic en los botones verdes con una cruz de color negro para hacer un zoom, en el botón verde con un guión para alejar o en las flechas verdes para mapas adyacentes.


METAR-TAF: